Time;durP1;ratioP1;P1;durP2;ratioP2;P2;SDS_P1;SDS_P2;PMS_P1;PMS_P2;Temp;Humidity;BMP_temperature;BMP_pressure;BME280_temperature;BME280_humidity;BME280_pressure;Samples;Min_cycle;Max_cycle;Signal;HPM_P1;HPM_P2
2023/01/23 00:01:34;;;;;;;28.25;20.05;;;;;;;2.44;100.00;103381.69;5309093;28;20024;-76
2023/01/23 00:04:05;;;;;;;24.30;20.13;;;;;;;2.39;100.00;103370.56;5307262;28;20031;-77
2023/01/23 00:06:37;;;;;;;26.52;20.52;;;;;;;2.48;100.00;103383.38;5305320;28;20034;-76
2023/01/23 00:09:08;;;;;;;25.38;21.05;;;;;;;2.44;100.00;103371.34;5291337;28;20106;-77
2023/01/23 00:11:40;;;;;;;29.48;20.83;;;;;;;2.46;100.00;103381.66;5304917;28;20093;-76
2023/01/23 00:14:11;;;;;;;26.02;20.48;;;;;;;2.40;100.00;103374.84;5312050;28;20023;-77
2023/01/23 00:16:42;;;;;;;29.63;21.33;;;;;;;2.33;100.00;103368.00;5306860;28;20031;-77
2023/01/23 00:19:14;;;;;;;29.20;21.70;;;;;;;2.47;100.00;103380.81;5306947;28;20039;-76
2023/01/23 00:21:45;;;;;;;29.67;22.17;;;;;;;2.47;100.00;103391.19;5311133;28;20053;-76
2023/01/23 00:24:16;;;;;;;27.60;20.88;;;;;;;2.46;100.00;103379.09;5310937;28;20651;-76
2023/01/23 00:26:48;;;;;;;29.45;19.63;;;;;;;2.43;100.00;103385.16;5304535;28;20032;-77
2023/01/23 00:29:19;;;;;;;28.73;21.10;;;;;;;2.38;100.00;103376.56;5310119;28;20023;-76
2023/01/23 00:31:50;;;;;;;24.17;18.80;;;;;;;2.46;100.00;103387.69;5308663;28;20374;-77
2023/01/23 00:34:21;;;;;;;29.05;21.45;;;;;;;2.46;100.00;103387.69;5309247;28;20092;-76
2023/01/23 00:36:53;;;;;;;25.40;19.60;;;;;;;2.49;100.00;103395.44;5298061;28;20039;-77
2023/01/23 00:39:24;;;;;;;25.25;19.10;;;;;;;2.44;100.00;103394.63;5310654;28;20024;-76
2023/01/23 00:41:55;;;;;;;24.67;19.20;;;;;;;2.49;100.00;103410.09;5306820;28;20110;-76
2023/01/23 00:44:27;;;;;;;25.30;18.67;;;;;;;2.50;100.00;103406.66;5304978;28;20476;-76
2023/01/23 00:46:58;;;;;;;25.05;19.25;;;;;;;2.48;100.00;103405.81;5307810;28;20012;-78
2023/01/23 00:49:30;;;;;;;27.52;19.30;;;;;;;2.50;100.00;103409.22;5308529;28;20042;-77
2023/01/23 00:52:01;;;;;;;25.48;19.85;;;;;;;2.48;100.00;103409.25;5300911;28;20073;-77
2023/01/23 00:54:32;;;;;;;24.77;19.65;;;;;;;2.48;100.00;103405.81;5300990;28;20034;-77
2023/01/23 00:57:04;;;;;;;27.13;18.85;;;;;;;2.49;100.00;103403.19;5307683;28;20015;-77
2023/01/23 00:59:35;;;;;;;26.00;20.40;;;;;;;2.51;100.00;103403.22;5305896;28;20030;-77
2023/01/23 01:02:07;;;;;;;30.23;20.85;;;;;;;2.47;100.00;103397.19;5302778;28;20024;-77
2023/01/23 01:04:38;;;;;;;24.25;18.85;;;;;;;2.47;100.00;103399.78;5307020;28;20080;-77
2023/01/23 01:07:09;;;;;;;28.67;19.38;;;;;;;2.46;100.00;103387.69;5304510;28;20043;-77
2023/01/23 01:09:41;;;;;;;23.90;18.70;;;;;;;2.51;100.00;103401.47;5303411;28;20024;-77
2023/01/23 01:12:13;;;;;;;22.88;19.10;;;;;;;2.43;100.00;103398.09;5305487;28;20473;-77
2023/01/23 01:14:44;;;;;;;26.25;18.95;;;;;;;2.44;100.00;103397.22;5307484;28;20027;-77
2023/01/23 01:17:16;;;;;;;24.73;18.58;;;;;;;2.43;100.00;103396.38;5306113;28;20531;-77
2023/01/23 01:19:47;;;;;;;22.20;18.80;;;;;;;2.40;100.00;103387.78;5287564;28;20026;-77
2023/01/23 01:22:18;;;;;;;27.15;19.40;;;;;;;2.48;100.00;103405.81;5305626;28;20085;-77
2023/01/23 01:24:50;;;;;;;26.15;20.38;;;;;;;2.47;100.00;103399.78;5305221;28;20119;-77
2023/01/23 01:27:22;;;;;;;26.70;17.98;;;;;;;2.46;100.00;103405.81;5303244;28;20440;-77
2023/01/23 01:29:54;;;;;;;29.23;19.77;;;;;;;2.46;100.00;103408.41;5302437;28;20035;-77
2023/01/23 01:32:25;;;;;;;24.90;19.50;;;;;;;2.41;100.00;103403.28;5308608;28;20479;-77
2023/01/23 01:34:56;;;;;;;23.83;18.17;;;;;;;2.47;100.00;103412.72;5305912;28;20115;-77
2023/01/23 01:37:27;;;;;;;26.58;17.95;;;;;;;2.44;100.00;103413.59;5307746;28;20110;-77
2023/01/23 01:40:00;;;;;;;24.83;18.38;;;;;;;2.46;100.00;103416.16;5307272;28;20027;-77
2023/01/23 01:42:48;;;;;;;24.75;18.40;;;;;;;2.56;100.00;103411.78;5305778;28;20032;-77
2023/01/23 01:45:53;;;;;;;24.95;18.65;;;;;;;2.69;100.00;103410.78;5309205;28;20024;-77
2023/01/23 01:48:30;;;;;;;25.42;18.23;;;;;;;2.57;100.00;103418.66;5306289;28;20027;-77
2023/01/23 01:51:23;;;;;;;22.13;17.77;;;;;;;2.55;100.00;103416.09;5304821;28;20393;-77
2023/01/23 01:54:02;;;;;;;25.67;18.85;;;;;;;2.56;100.00;103412.63;5286495;28;20028;-76
2023/01/23 01:56:44;;;;;;;24.73;17.67;;;;;;;2.57;100.00;103418.66;5306439;28;20030;-76
2023/01/23 01:59:16;;;;;;;23.45;19.38;;;;;;;2.46;100.00;103411.00;5301205;28;20504;-77
2023/01/23 02:01:53;;;;;;;25.35;18.38;;;;;;;2.50;100.00;103397.19;5286252;28;20420;-76
2023/01/23 02:04:24;;;;;;;24.27;18.15;;;;;;;2.41;100.00;103400.69;5303263;28;20148;-76
2023/01/23 02:06:57;;;;;;;22.75;19.08;;;;;;;2.48;100.00;103404.09;5304713;28;20027;-77
2023/01/23 02:09:32;;;;;;;23.77;18.67;;;;;;;2.42;100.00;103396.38;5304397;28;20059;-77
2023/01/23 02:12:03;;;;;;;23.67;18.45;;;;;;;2.49;100.00;103410.09;5303314;28;20443;-76
2023/01/23 02:14:35;;;;;;;35.85;18.92;;;;;;;2.51;100.00;103413.56;5302837;28;20040;-76
2023/01/23 02:17:06;;;;;;;25.42;18.73;;;;;;;2.48;100.00;103405.81;5305913;28;20034;-76
2023/01/23 02:20:12;;;;;;;26.17;19.40;;;;;;;2.75;100.00;103410.69;5303025;28;20493;-77
2023/01/23 02:22:52;;;;;;;25.30;18.75;;;;;;;2.61;100.00;103408.28;5287924;28;20031;-76
2023/01/23 02:25:42;;;;;;;25.98;18.73;;;;;;;2.61;100.00;103412.56;5305638;28;20338;-76
2023/01/23 02:28:16;;;;;;;25.60;18.40;;;;;;;2.51;100.00;103406.66;5295944;28;20050;-76
2023/01/23 02:30:49;;;;;;;25.90;19.60;;;;;;;2.49;100.00;103410.09;5304878;28;20487;-76
2023/01/23 02:33:23;;;;;;;25.33;17.92;;;;;;;2.53;100.00;103414.38;5303416;28;20110;-77
2023/01/23 02:35:54;;;;;;;21.75;17.05;;;;;;;2.47;100.00;103410.13;5306312;28;20111;-77
2023/01/23 02:38:31;;;;;;;25.98;19.65;;;;;;;2.56;100.00;103412.63;5305311;28;20465;-77
2023/01/23 02:41:06;;;;;;;28.80;18.90;;;;;;;2.52;100.00;103399.75;5305950;28;20016;-77
2023/01/23 02:43:38;;;;;;;25.55;19.17;;;;;;;2.52;100.00;103405.75;5308234;28;20439;-76
2023/01/23 02:46:10;;;;;;;31.65;19.33;;;;;;;2.55;100.00;103410.06;5303429;28;20035;-76
2023/01/23 02:48:43;;;;;;;25.67;18.53;;;;;;;2.55;100.00;103407.47;5310316;28;20461;-77
2023/01/23 02:51:16;;;;;;;26.50;17.77;;;;;;;2.57;100.00;103408.31;5307020;28;20035;-76
2023/01/23 02:53:48;;;;;;;25.50;19.70;;;;;;;2.52;100.00;103404.91;5305442;28;20036;-77
2023/01/23 02:56:19;;;;;;;27.75;18.98;;;;;;;2.53;100.00;103406.63;5302327;28;20377;-76
2023/01/23 03:01:40;;;;;;;31.17;18.63;;;;;;;2.50;100.00;103404.94;5303420;28;20051;-77
2023/01/23 03:04:12;;;;;;;26.45;19.40;;;;;;;2.56;100.00;103415.22;5302944;28;20028;-77
2023/01/23 03:06:43;;;;;;;24.92;19.88;;;;;;;2.51;100.00;103404.06;5308292;28;20537;-76
2023/01/23 03:09:16;;;;;;;25.58;18.55;;;;;;;2.63;100.00;103413.44;5309009;28;20020;-76
2023/01/23 03:11:49;;;;;;;25.13;18.05;;;;;;;2.63;100.00;103416.00;5309688;28;20103;-76
2023/01/23 03:14:22;;;;;;;29.25;19.55;;;;;;;2.59;100.00;103411.75;5304285;28;20047;-76
2023/01/23 03:16:54;;;;;;;29.83;19.17;;;;;;;2.55;100.00;103407.47;5304042;28;20702;-76
2023/01/23 03:19:25;;;;;;;30.33;19.17;;;;;;;2.57;100.00;103413.47;5304636;28;20077;-76
2023/01/23 03:21:57;;;;;;;25.73;19.63;;;;;;;2.61;100.00;103420.34;5283784;28;20488;-76
2023/01/23 03:24:28;;;;;;;28.38;19.42;;;;;;;2.56;100.00;103417.81;5278505;28;20035;-76
2023/01/23 03:26:59;;;;;;;26.58;18.90;;;;;;;2.58;100.00;103418.66;5307037;28;20150;-76
2023/01/23 03:32:21;;;;;;;24.70;18.85;;;;;;;2.60;100.00;103426.38;5307159;28;20032;-76
2023/01/23 03:34:52;;;;;;;24.63;20.58;;;;;;;2.57;100.00;103413.47;5305526;28;20023;-76
2023/01/23 03:37:24;;;;;;;27.13;18.90;;;;;;;2.60;100.00;103426.38;5289364;28;20023;-76
2023/01/23 03:42:45;;;;;;;24.10;19.15;;;;;;;2.59;100.00;103417.78;5301993;28;20498;-76
2023/01/23 03:45:16;;;;;;;34.22;19.95;;;;;;;2.63;100.00;103427.22;5308043;28;20019;-76
2023/01/23 03:47:48;;;;;;;24.98;18.80;;;;;;;2.65;100.00;103425.50;5290883;28;20754;-76
2023/01/23 03:50:19;;;;;;;24.27;18.85;;;;;;;2.61;100.00;103418.63;5300777;28;20029;-76
2023/01/23 03:52:50;;;;;;;26.30;18.88;;;;;;;2.61;100.00;103412.56;5303488;28;20032;-76
2023/01/23 03:55:21;;;;;;;26.60;19.70;;;;;;;2.68;100.00;103419.41;5310997;28;20362;-76
2023/01/23 03:57:53;;;;;;;28.70;19.38;;;;;;;2.66;100.00;103422.03;5311619;28;20031;-76
2023/01/23 04:00:24;;;;;;;28.27;19.38;;;;;;;2.64;100.00;103428.06;5303404;28;20030;-76
2023/01/23 04:02:55;;;;;;;27.40;20.60;;;;;;;2.60;100.00;103414.31;5307504;28;20024;-76
2023/01/23 04:05:27;;;;;;;25.30;19.45;;;;;;;2.65;100.00;103411.66;5310414;28;20171;-76
2023/01/23 04:07:58;;;;;;;25.02;18.95;;;;;;;2.66;100.00;103411.66;5307533;28;20162;-76
2023/01/23 04:10:29;;;;;;;26.85;19.75;;;;;;;2.70;100.00;103416.81;5306160;28;20107;-76
2023/01/23 04:13:01;;;;;;;26.80;19.48;;;;;;;2.68;100.00;103422.84;5307028;28;20038;-76
2023/01/23 04:15:32;;;;;;;25.92;19.20;;;;;;;2.68;100.00;103425.44;5308293;28;20104;-76
2023/01/23 04:18:03;;;;;;;27.65;19.35;;;;;;;2.72;100.00;103421.09;5306541;28;20032;-76
2023/01/23 04:20:35;;;;;;;28.65;19.25;;;;;;;2.75;100.00;103422.78;5303557;28;20028;-76
2023/01/23 04:23:06;;;;;;;29.92;20.27;;;;;;;2.75;100.00;103425.38;5307164;28;20034;-76
2023/01/23 04:25:37;;;;;;;24.10;19.52;;;;;;;2.67;100.00;103413.38;5308374;28;20044;-76
2023/01/23 04:28:09;;;;;;;26.27;19.65;;;;;;;2.65;100.00;103416.84;5306376;28;20115;-76
2023/01/23 04:30:40;;;;;;;27.15;19.80;;;;;;;2.65;100.00;103419.44;5291192;28;20019;-76
2023/01/23 04:33:12;;;;;;;29.23;19.30;;;;;;;2.66;100.00;103431.53;5305042;28;20023;-75
2023/01/23 04:35:59;;;;;;;30.42;20.27;;;;;;;2.86;100.00;103439.06;5309191;28;20059;-76
2023/01/23 04:38:31;;;;;;;31.83;19.95;;;;;;;2.66;100.00;103432.38;5310362;28;20032;-75
2023/01/23 04:41:03;;;;;;;24.48;19.67;;;;;;;2.60;100.00;103424.66;5306242;28;20110;-76
2023/01/23 04:43:34;;;;;;;25.50;19.75;;;;;;;2.69;100.00;103439.25;5307184;28;20565;-76
2023/01/23 04:46:07;;;;;;;31.30;19.45;;;;;;;2.63;100.00;103429.81;5308961;28;20030;-76
2023/01/23 04:48:38;;;;;;;26.70;19.30;;;;;;;2.65;100.00;103435.84;5309041;28;20036;-76
2023/01/23 04:51:10;;;;;;;29.80;20.70;;;;;;;2.70;100.00;103437.53;5306915;28;20035;-76
2023/01/23 04:53:41;;;;;;;26.73;19.15;;;;;;;2.66;100.00;103426.34;5308566;28;20389;-76
2023/01/23 04:56:13;;;;;;;27.85;19.30;;;;;;;2.73;100.00;103437.47;5308358;28;20038;-76
2023/01/23 04:58:44;;;;;;;27.80;20.33;;;;;;;2.75;100.00;103448.69;5307432;28;20024;-76
2023/01/23 05:01:15;;;;;;;31.13;20.83;;;;;;;2.75;100.00;103446.09;5307303;28;20074;-76
2023/01/23 05:03:46;;;;;;;26.65;19.60;;;;;;;2.69;100.00;103441.84;5305024;28;20118;-76
2023/01/23 05:06:18;;;;;;;28.48;20.52;;;;;;;2.73;100.00;103455.59;5309072;28;20027;-76
2023/01/23 05:08:50;;;;;;;29.67;20.33;;;;;;;2.72;100.00;103452.16;5307309;28;20461;-76
2023/01/23 05:11:21;;;;;;;27.45;20.00;;;;;;;2.72;100.00;103452.16;5308388;28;20103;-76
2023/01/23 05:13:52;;;;;;;26.50;20.55;;;;;;;2.72;100.00;103444.38;5278946;28;20025;-76
2023/01/23 05:16:24;;;;;;;25.10;19.80;;;;;;;2.73;100.00;103447.81;5306141;28;20071;-76
2023/01/23 05:18:55;;;;;;;27.35;19.33;;;;;;;2.75;100.00;103452.13;5307117;28;20024;-76
2023/01/23 05:21:26;;;;;;;27.75;20.65;;;;;;;2.71;100.00;103452.16;5306251;28;20034;-76
2023/01/23 05:23:57;;;;;;;24.45;20.08;;;;;;;2.72;100.00;103451.28;5305159;28;20121;-76
2023/01/23 05:26:29;;;;;;;25.67;19.27;;;;;;;2.65;100.00;103442.72;5306372;28;20113;-76
2023/01/23 05:29:00;;;;;;;26.25;20.90;;;;;;;2.78;100.00;103459.84;5307102;28;20026;-76
2023/01/23 05:31:31;;;;;;;28.50;21.02;;;;;;;2.73;100.00;103450.41;5302281;28;20039;-76
2023/01/23 05:34:03;;;;;;;30.42;21.83;;;;;;;2.75;100.00;103462.47;5305696;28;20449;-76
2023/01/23 05:36:34;;;;;;;29.38;20.63;;;;;;;2.79;100.00;103463.31;5306601;28;20039;-76
2023/01/23 05:39:05;;;;;;;29.23;20.52;;;;;;;2.77;100.00;103465.06;5287884;28;20110;-76
2023/01/23 05:41:36;;;;;;;28.63;19.52;;;;;;;2.78;100.00;103466.78;5296083;28;20047;-75
2023/01/23 05:44:08;;;;;;;26.75;20.13;;;;;;;2.77;100.00;103463.34;5288662;28;20525;-75
2023/01/23 05:46:39;;;;;;;26.77;18.80;;;;;;;2.72;100.00;103454.72;5306184;28;20034;-75
2023/01/23 05:49:10;;;;;;;28.23;21.52;;;;;;;2.78;100.00;103461.59;5307558;28;20020;-75
2023/01/23 05:51:42;;;;;;;28.35;20.20;;;;;;;2.76;100.00;103466.78;5305067;28;20039;-75
2023/01/23 05:54:13;;;;;;;28.63;20.58;;;;;;;2.84;100.00;103469.28;5301077;28;20026;-75
2023/01/23 05:56:44;;;;;;;30.35;21.33;;;;;;;2.77;100.00;103462.47;5283146;28;20446;-75
2023/01/23 05:59:16;;;;;;;30.08;20.27;;;;;;;2.81;100.00;103471.94;5304216;28;20032;-76
2023/01/23 06:01:47;;;;;;;26.15;19.75;;;;;;;2.78;100.00;103469.34;5308160;28;20430;-75
2023/01/23 06:04:18;;;;;;;31.05;21.13;;;;;;;2.79;100.00;103477.09;5293467;28;20152;-75
2023/01/23 06:06:50;;;;;;;31.33;21.58;;;;;;;2.78;100.00;103479.72;5306453;28;20111;-76
2023/01/23 06:09:21;;;;;;;30.42;22.00;;;;;;;2.79;100.00;103482.28;5305907;28;20047;-76
2023/01/23 06:11:52;;;;;;;31.92;22.00;;;;;;;2.80;100.00;103478.81;5304346;28;20027;-76
2023/01/23 06:14:24;;;;;;;30.85;21.70;;;;;;;2.79;100.00;103482.28;5309855;28;20035;-76
2023/01/23 06:16:55;;;;;;;34.17;23.45;;;;;;;2.84;100.00;103490.00;5300614;28;20031;-77
2023/01/23 06:19:26;;;;;;;31.70;22.02;;;;;;;2.83;100.00;103478.78;5304436;28;20039;-75
2023/01/23 06:21:57;;;;;;;31.20;22.20;;;;;;;2.82;100.00;103484.00;5302459;28;20024;-76
2023/01/23 06:24:32;;;;;;;29.90;21.33;;;;;;;2.90;100.00;103485.63;5308984;28;20027;-76
2023/01/23 06:27:07;;;;;;;29.00;21.92;;;;;;;2.81;100.00;103490.91;5307547;28;20074;-75
2023/01/23 06:29:39;;;;;;;31.35;21.13;;;;;;;2.74;100.00;103478.88;5311368;28;20135;-75
2023/01/23 06:32:11;;;;;;;31.08;21.83;;;;;;;2.80;100.00;103483.97;5303522;28;20110;-75
2023/01/23 06:34:42;;;;;;;26.90;21.30;;;;;;;2.76;100.00;103471.94;5313907;28;20051;-75
2023/01/23 06:37:14;;;;;;;28.90;20.27;;;;;;;2.83;100.00;103488.28;5306349;28;20028;-75
2023/01/23 06:39:45;;;;;;;31.55;21.60;;;;;;;2.87;100.00;103484.78;5308329;28;20480;-75
2023/01/23 06:42:16;;;;;;;28.55;21.13;;;;;;;2.85;100.00;103489.16;5305215;28;20089;-76
2023/01/23 06:44:48;;;;;;;30.08;21.15;;;;;;;2.91;100.00;103491.66;5305835;28;20520;-75
2023/01/23 06:47:19;;;;;;;29.25;20.63;;;;;;;2.92;100.00;103493.38;5298423;28;20084;-76
2023/01/23 06:49:50;;;;;;;27.50;20.70;;;;;;;2.92;100.00;103496.84;5283969;28;20111;-75
2023/01/23 06:52:22;;;;;;;28.25;21.17;;;;;;;2.90;100.00;103489.94;5284481;28;20523;-75
2023/01/23 06:54:53;;;;;;;29.10;21.85;;;;;;;2.93;100.00;103497.69;5304550;28;20042;-75
2023/01/23 06:57:24;;;;;;;29.00;21.38;;;;;;;2.92;100.00;103495.97;5300895;28;20024;-75
2023/01/23 06:59:56;;;;;;;27.23;20.45;;;;;;;2.92;100.00;103493.38;5289817;28;20036;-76
2023/01/23 07:02:27;;;;;;;28.23;21.00;;;;;;;2.96;100.00;103504.56;5296679;28;20046;-76
2023/01/23 07:04:58;;;;;;;26.23;21.35;;;;;;;3.00;100.00;103506.25;5294566;28;20054;-76
2023/01/23 07:07:29;;;;;;;27.17;21.23;;;;;;;2.91;100.00;103492.50;5283893;28;20515;-76
2023/01/23 07:10:01;;;;;;;29.75;21.55;;;;;;;3.00;100.00;103511.44;5300710;28;20736;-76
2023/01/23 07:12:32;;;;;;;27.60;21.63;;;;;;;2.99;100.00;103514.88;5303078;28;20024;-76
2023/01/23 07:15:04;;;;;;;26.55;21.30;;;;;;;2.96;100.00;103515.78;5305894;28;20042;-76
2023/01/23 07:17:35;;;;;;;27.10;20.08;;;;;;;2.88;100.00;103508.09;5285167;28;20505;-76
2023/01/23 07:20:07;;;;;;;26.83;20.30;;;;;;;2.97;100.00;103520.09;5310513;28;20754;-75
2023/01/23 07:22:39;;;;;;;29.17;21.13;;;;;;;2.84;100.00;103514.19;5303625;28;20449;-75
2023/01/23 07:25:10;;;;;;;29.23;20.98;;;;;;;2.90;100.00;103515.84;5287824;28;20059;-76
2023/01/23 07:27:41;;;;;;;28.85;20.63;;;;;;;2.95;100.00;103519.22;5304230;28;20023;-76
2023/01/23 07:30:13;;;;;;;26.10;20.17;;;;;;;2.91;100.00;103525.31;5303082;28;20477;-76
2023/01/23 07:32:44;;;;;;;28.52;21.50;;;;;;;2.98;100.00;103539.91;5288137;28;20397;-76
2023/01/23 07:35:16;;;;;;;29.83;22.30;;;;;;;2.95;100.00;103532.19;5293075;28;20400;-75
2023/01/23 07:37:47;;;;;;;27.70;21.02;;;;;;;2.98;100.00;103544.25;5303327;28;20431;-76
2023/01/23 07:40:18;;;;;;;25.70;20.23;;;;;;;3.02;100.00;103546.78;5309263;28;20031;-76
2023/01/23 07:42:50;;;;;;;27.27;20.67;;;;;;;3.02;100.00;103541.59;5304992;27;20389;-76
2023/01/23 07:45:21;;;;;;;26.13;20.73;;;;;;;3.04;100.00;103549.38;5301995;28;20039;-76
2023/01/23 07:47:52;;;;;;;25.35;20.33;;;;;;;2.88;100.00;103527.94;5302571;28;20115;-76
2023/01/23 07:50:24;;;;;;;27.50;20.80;;;;;;;3.05;100.00;103551.09;5310277;28;20051;-76
2023/01/23 07:52:55;;;;;;;28.02;21.10;;;;;;;3.07;100.00;103555.38;5299218;28;20027;-76
2023/01/23 07:55:26;;;;;;;26.40;20.23;;;;;;;3.09;100.00;103556.22;5308040;28;20052;-76
2023/01/23 07:57:57;;;;;;;26.50;21.20;;;;;;;3.11;100.00;103566.56;5306703;28;20033;-76
2023/01/23 08:00:29;;;;;;;26.35;20.58;;;;;;;3.14;100.00;103564.81;5283525;28;20031;-76
2023/01/23 08:03:00;;;;;;;30.65;21.63;;;;;;;3.15;100.00;103557.91;5286867;28;20670;-76
2023/01/23 08:05:31;;;;;;;25.77;20.60;;;;;;;3.12;100.00;103560.50;5301362;28;20143;-76
2023/01/23 08:08:03;;;;;;;30.40;20.27;;;;;;;3.08;100.00;103558.84;5306358;28;20077;-76
2023/01/23 08:10:34;;;;;;;25.70;20.33;;;;;;;3.15;100.00;103569.13;5305382;28;20383;-76
2023/01/23 08:13:06;;;;;;;25.77;19.77;;;;;;;3.13;100.00;103570.00;5301354;28;20491;-76
2023/01/23 08:15:37;;;;;;;28.80;21.10;;;;;;;3.04;100.00;103558.00;5301165;28;20370;-76
2023/01/23 08:18:12;;;;;;;24.77;19.42;;;;;;;3.19;100.00;103563.91;5302171;28;20110;-76
2023/01/23 08:20:43;;;;;;;24.98;20.05;;;;;;;3.15;100.00;103569.13;5307319;28;20019;-76
2023/01/23 08:23:15;;;;;;;26.15;21.33;;;;;;;3.09;100.00;103558.81;5289886;28;20058;-76
2023/01/23 08:25:50;;;;;;;24.20;20.20;;;;;;;3.12;100.00;103566.53;5301801;28;20035;-76
2023/01/23 08:28:23;;;;;;;26.95;19.45;;;;;;;3.09;100.00;103561.38;5276354;28;20036;-76
2023/01/23 08:30:54;;;;;;;26.90;20.02;;;;;;;3.11;100.00;103567.44;5304120;28;20035;-76
2023/01/23 08:33:26;;;;;;;26.63;19.73;;;;;;;3.18;100.00;103578.56;5288077;28;20516;-76
2023/01/23 08:35:57;;;;;;;26.02;19.60;;;;;;;3.24;100.00;103580.25;5302028;28;20075;-75
2023/01/23 08:38:30;;;;;;;25.73;20.45;;;;;;;3.21;100.00;103577.69;5285526;28;20034;-76
2023/01/23 08:41:02;;;;;;;25.23;20.63;;;;;;;3.21;100.00;103582.88;5288653;28;20500;-76
2023/01/23 08:43:34;;;;;;;25.50;21.10;;;;;;;3.13;100.00;103572.59;5312592;27;20039;-76
2023/01/23 08:46:07;;;;;;;24.65;19.60;;;;;;;3.25;100.00;103581.97;5327393;27;20042;-76
2023/01/23 08:48:38;;;;;;;26.60;19.77;;;;;;;3.17;100.00;103575.13;5323012;27;20027;-75
2023/01/23 08:51:11;;;;;;;26.60;20.30;;;;;;;3.20;100.00;103578.56;5323459;27;20089;-76
2023/01/23 08:53:43;;;;;;;27.50;19.98;;;;;;;3.28;100.00;103594.88;5328088;27;20012;-76
2023/01/23 08:56:17;;;;;;;24.08;19.45;;;;;;;3.32;100.00;103588.81;5322838;27;20030;-76
2023/01/23 08:58:49;;;;;;;25.58;19.58;;;;;;;3.26;100.00;103583.66;5325783;27;20023;-76
2023/01/23 09:01:23;;;;;;;25.13;20.08;;;;;;;3.31;100.00;103585.34;5320666;27;20023;-76
2023/01/23 09:03:55;;;;;;;30.92;19.35;;;;;;;3.31;100.00;103587.94;5324345;27;20043;-76
2023/01/23 09:06:26;;;;;;;26.48;20.15;;;;;;;3.31;100.00;103582.75;5320915;27;20106;-75
2023/01/23 09:08:58;;;;;;;27.42;19.65;;;;;;;3.31;100.00;103587.09;5326278;27;20033;-76
2023/01/23 09:11:29;;;;;;;26.10;20.25;;;;;;;3.33;100.00;103582.75;5325672;27;20027;-76
2023/01/23 09:14:00;;;;;;;26.50;20.35;;;;;;;3.32;100.00;103593.97;5328712;27;20080;-76
2023/01/23 09:16:32;;;;;;;24.52;19.92;;;;;;;3.35;100.00;103600.00;5324498;27;20396;-76
2023/01/23 09:19:03;;;;;;;26.45;20.95;;;;;;;3.28;100.00;103595.75;5324224;27;20105;-76
2023/01/23 09:21:34;;;;;;;23.88;19.92;;;;;;;3.36;100.00;103593.06;5325424;27;20027;-76
2023/01/23 09:24:06;;;;;;;24.45;20.42;;;;;;;3.41;100.00;103596.50;5320778;27;20110;-77
2023/01/23 09:26:38;;;;;;;23.85;19.08;;;;;;;3.38;100.00;103580.97;5321938;27;20511;-76
2023/01/23 09:29:09;;;;;;;25.27;19.02;;;;;;;3.47;100.00;103583.44;5325091;27;20028;-76
2023/01/23 09:31:40;;;;;;;24.42;20.17;;;;;;;3.49;100.00;103589.50;5322870;27;20033;-77
2023/01/23 09:34:12;;;;;;;23.00;18.40;;;;;;;3.56;100.00;103585.97;5318913;27;20030;-77
2023/01/23 09:36:43;;;;;;;23.67;19.85;;;;;;;3.60;100.00;103584.19;5320968;27;20058;-76
2023/01/23 09:39:14;;;;;;;24.08;19.50;;;;;;;3.68;100.00;103577.19;5319340;27;20027;-77
2023/01/23 09:41:46;;;;;;;25.90;19.83;;;;;;;3.73;100.00;103590.06;5330910;27;20353;-76
2023/01/23 09:44:27;;;;;;;23.80;19.17;;;;;;;3.72;100.00;103581.44;5305175;27;20417;-77
2023/01/23 09:47:09;;;;;;;23.70;19.20;;;;;;;3.80;100.00;103584.81;5301373;28;20024;-77
2023/01/23 09:49:47;;;;;;;25.50;19.00;;;;;;;3.83;100.00;103604.66;5284319;28;20035;-77
2023/01/23 09:52:22;;;;;;;24.23;19.23;;;;;;;3.82;100.00;103608.97;5297594;28;20075;-77
2023/01/23 09:55:02;;;;;;;23.25;19.58;;;;;;;3.92;100.00;103614.91;5309190;28;20036;-77
2023/01/23 09:57:42;;;;;;;22.20;19.15;;;;;;;3.81;100.00;103606.41;5304789;28;20114;-77
2023/01/23 10:00:22;;;;;;;25.25;19.73;;;;;;;3.96;100.00;103615.72;5300700;28;20023;-76
2023/01/23 10:02:55;;;;;;;22.80;18.67;;;;;;;3.86;100.00;103614.97;5304626;28;20036;-76
2023/01/23 10:05:55;;;;;;;24.35;18.25;;;;;;;3.98;100.00;103613.97;5307364;28;20430;-76
2023/01/23 10:08:39;;;;;;;23.42;19.17;;;;;;;3.94;100.00;103615.75;5304239;28;20032;-76
2023/01/23 10:11:34;;;;;;;25.15;19.77;;;;;;;3.98;100.00;103614.84;5302231;28;20036;-76
2023/01/23 10:14:37;;;;;;;23.73;18.73;;;;;;;4.06;100.00;103612.16;5304191;28;20020;-77
2023/01/23 10:17:26;;;;;;;22.92;18.95;;;;;;;4.08;100.00;103607.78;5303286;28;20023;-76
2023/01/23 10:20:29;;;;;;;20.73;17.48;;;;;;;4.19;100.00;103599.84;5300353;28;20517;-76
2023/01/23 10:23:29;;;;;;;25.65;19.33;;;;;;;4.07;100.00;103614.72;5299415;28;20385;-77
2023/01/23 10:26:02;;;;;;;26.73;18.48;;;;;;;4.06;100.00;103619.94;5298215;28;20023;-77
2023/01/23 10:28:37;;;;;;;;;;;;;;;4.59;100.00;103618.31;5303988;28;20650;-77
2023/01/23 10:31:21;;;;;;;22.77;18.05;;;;;;;4.22;100.00;103623.19;5300691;28;20396;-77
2023/01/23 10:34:07;;;;;;;21.83;18.15;;;;;;;4.16;100.00;103618.91;5296398;28;20021;-77
2023/01/23 10:36:47;;;;;;;23.38;18.85;;;;;;;4.07;100.00;103614.72;5298276;28;20032;-77
2023/01/23 10:39:25;;;;;;;22.73;18.35;;;;;;;4.07;100.00;103609.53;5291673;28;20027;-77
2023/01/23 10:41:56;;;;;;;25.33;18.60;;;;;;;4.02;100.00;103608.72;5293045;28;20683;-77
2023/01/23 10:44:27;;;;;;;23.17;17.88;;;;;;;4.01;100.00;103604.41;5296337;28;20054;-77
2023/01/23 10:47:03;;;;;;;21.25;18.35;;;;;;;4.11;100.00;103613.78;5300582;28;20035;-77
2023/01/23 10:49:42;;;;;;;20.50;17.88;;;;;;;4.07;100.00;103611.25;5296683;28;20024;-77
2023/01/23 10:52:30;;;;;;;25.85;18.08;;;;;;;4.26;100.00;103610.13;5294797;28;20024;-77
2023/01/23 10:55:23;;;;;;;23.40;18.17;;;;;;;4.21;100.00;103611.94;5297779;28;20445;-77
2023/01/23 10:57:57;;;;;;;23.85;18.42;;;;;;;4.23;100.00;103604.13;5298930;28;20043;-77
2023/01/23 11:00:38;;;;;;;22.23;17.92;;;;;;;4.17;100.00;103591.22;5304933;28;20035;-76
2023/01/23 11:03:19;;;;;;;25.00;17.80;;;;;;;4.28;100.00;103600.59;5300684;28;20036;-76
2023/01/23 11:06:00;;;;;;;25.60;19.48;;;;;;;4.30;100.00;103611.81;5299559;28;20143;-76
2023/01/23 11:08:35;;;;;;;22.73;18.60;;;;;;;4.20;100.00;103605.00;5303652;28;20038;-76
2023/01/23 11:11:15;;;;;;;24.77;17.73;;;;;;;4.30;100.00;103605.75;5302694;28;20062;-77
2023/01/23 11:13:49;;;;;;;25.73;18.70;;;;;;;4.20;100.00;103593.78;5302306;28;20077;-77
2023/01/23 11:16:21;;;;;;;26.13;18.98;;;;;;;4.24;100.00;103601.50;5302193;28;20052;-77
2023/01/23 11:19:03;;;;;;;25.25;19.42;;;;;;;4.20;100.00;103593.78;5301762;28;20021;-77
2023/01/23 11:21:37;;;;;;;22.98;17.67;;;;;;;4.28;100.00;103607.50;5298164;28;20388;-77
2023/01/23 11:24:18;;;;;;;24.35;17.10;;;;;;;4.36;100.00;103603.09;5305591;28;20367;-77
2023/01/23 11:27:22;;;;;;;25.02;19.15;;;;;;;4.52;100.00;103606.31;5305685;28;20249;-77
2023/01/23 11:30:31;;;;;;;19.95;16.00;;;;;;;4.54;100.00;103600.19;5292178;28;20039;-77
2023/01/23 11:33:32;;;;;;;21.00;16.83;;;;;;;4.51;100.00;103599.38;5301301;28;20039;-77
2023/01/23 11:36:16;;;;;;;22.98;18.02;;;;;;;4.41;100.00;103592.63;5301252;28;20478;-77
2023/01/23 11:38:55;;;;;;;21.00;16.45;;;;;;;4.50;100.00;103589.88;5307011;28;20114;-76
2023/01/23 11:41:32;;;;;;;18.75;16.50;;;;;;;4.49;100.00;103591.63;5306432;28;20038;-77
2023/01/23 11:44:12;;;;;;;19.60;15.25;;;;;;;4.52;100.00;103582.94;5305287;28;20047;-76
2023/01/23 11:46:52;;;;;;;21.23;17.08;;;;;;;4.54;100.00;103595.00;5300020;28;20073;-76
2023/01/23 11:49:54;;;;;;;22.70;16.65;;;;;;;4.75;100.00;103595.56;5305580;28;20545;-77